sensor_id;sensor_type;location;lat;lon;timestamp;pressure;altitude;pressure_sealevel;temperature;humidity
60170;BME280;46042;49.444;6.862;2022-12-28T00:03:45;99323.13;;;1.38;100.00
60170;BME280;46042;49.444;6.862;2022-12-28T00:06:12;99320.50;;;1.38;100.00
60170;BME280;46042;49.444;6.862;2022-12-28T00:08:39;99306.59;;;1.42;100.00
60170;BME280;46042;49.444;6.862;2022-12-28T00:11:10;99299.69;;;1.41;100.00
60170;BME280;46042;49.444;6.862;2022-12-28T00:13:53;99299.56;;;1.47;100.00
60170;BME280;46042;49.444;6.862;2022-12-28T00:16:28;99280.50;;;1.48;100.00
60170;BME280;46042;49.444;6.862;2022-12-28T00:18:57;99271.88;;;1.48;100.00
60170;BME280;46042;49.444;6.862;2022-12-28T00:21:24;99274.34;;;1.54;100.00
60170;BME280;46042;49.444;6.862;2022-12-28T00:23:53;99270.03;;;1.54;100.00
60170;BME280;46042;49.444;6.862;2022-12-28T00:26:24;99259.63;;;1.54;100.00
60170;BME280;46042;49.444;6.862;2022-12-28T00:28:51;99265.59;;;1.60;100.00
60170;BME280;46042;49.444;6.862;2022-12-28T00:31:25;99256.03;;;1.62;100.00
60170;BME280;46042;49.444;6.862;2022-12-28T00:33:52;99241.28;;;1.62;100.00
60170;BME280;46042;49.444;6.862;2022-12-28T00:36:19;99250.75;;;1.66;100.00
60170;BME280;46042;49.444;6.862;2022-12-28T00:38:45;99244.66;;;1.67;100.00
60170;BME280;46042;49.444;6.862;2022-12-28T00:41:12;99239.38;;;1.72;100.00
60170;BME280;46042;49.444;6.862;2022-12-28T00:43:38;99241.91;;;1.75;100.00
60170;BME280;46042;49.444;6.862;2022-12-28T00:46:05;99246.16;;;1.78;100.00
60170;BME280;46042;49.444;6.862;2022-12-28T00:48:32;99237.44;;;1.82;100.00
60170;BME280;46042;49.444;6.862;2022-12-28T00:51:07;99225.28;;;1.84;100.00
60170;BME280;46042;49.444;6.862;2022-12-28T00:53:34;99232.03;;;1.93;100.00
60170;BME280;46042;49.444;6.862;2022-12-28T00:56:16;99228.50;;;1.95;100.00
60170;BME280;46042;49.444;6.862;2022-12-28T00:58:44;99225.88;;;1.97;100.00
60170;BME280;46042;49.444;6.862;2022-12-28T01:01:16;99236.09;;;2.05;100.00
60170;BME280;46042;49.444;6.862;2022-12-28T01:03:43;99239.59;;;2.04;100.00
60170;BME280;46042;49.444;6.862;2022-12-28T01:06:12;99227.41;;;2.07;100.00
60170;BME280;46042;49.444;6.862;2022-12-28T01:08:40;99219.59;;;2.07;100.00
60170;BME280;46042;49.444;6.862;2022-12-28T01:11:08;99198.03;;;2.02;100.00
60170;BME280;46042;49.444;6.862;2022-12-28T01:13:36;99180.72;;;2.01;100.00
60170;BME280;46042;49.444;6.862;2022-12-28T01:16:11;99188.41;;;2.07;100.00
60170;BME280;46042;49.444;6.862;2022-12-28T01:18:38;99203.94;;;2.09;100.00
60170;BME280;46042;49.444;6.862;2022-12-28T01:21:12;99204.91;;;2.05;100.00
60170;BME280;46042;49.444;6.862;2022-12-28T01:23:40;99190.22;;;2.04;100.00
60170;BME280;46042;49.444;6.862;2022-12-28T01:26:07;99197.13;;;2.05;100.00
60170;BME280;46042;49.444;6.862;2022-12-28T01:28:34;99205.66;;;2.10;100.00
60170;BME280;46042;49.444;6.862;2022-12-28T01:31:15;99198.75;;;2.10;100.00
60170;BME280;46042;49.444;6.862;2022-12-28T01:33:42;99203.84;;;2.15;100.00
60170;BME280;46042;49.444;6.862;2022-12-28T01:36:16;99203.75;;;2.18;100.00
60170;BME280;46042;49.444;6.862;2022-12-28T01:38:45;99206.28;;;2.23;100.00
60170;BME280;46042;49.444;6.862;2022-12-28T01:41:15;99209.72;;;2.22;100.00
60170;BME280;46042;49.444;6.862;2022-12-28T01:46:37;99189.69;;;2.27;100.00
60170;BME280;46042;49.444;6.862;2022-12-28T01:49:40;99176.53;;;2.33;100.00
60170;BME280;46042;49.444;6.862;2022-12-28T01:55:02;99174.75;;;2.37;100.00
60170;BME280;46042;49.444;6.862;2022-12-28T01:57:36;99166.88;;;2.38;100.00
60170;BME280;46042;49.444;6.862;2022-12-28T02:00:09;99165.16;;;2.39;100.00
60170;BME280;46042;49.444;6.862;2022-12-28T02:02:38;99172.06;;;2.40;100.00
60170;BME280;46042;49.444;6.862;2022-12-28T02:05:07;99158.19;;;2.39;100.00
60170;BME280;46042;49.444;6.862;2022-12-28T02:10:04;99150.19;;;2.47;100.00
60170;BME280;46042;49.444;6.862;2022-12-28T02:12:52;99146.75;;;2.47;100.00
60170;BME280;46042;49.444;6.862;2022-12-28T02:15:19;99138.03;;;2.49;100.00
60170;BME280;46042;49.444;6.862;2022-12-28T02:17:49;99143.16;;;2.52;100.00
60170;BME280;46042;49.444;6.862;2022-12-28T02:20:15;99146.59;;;2.53;100.00
60170;BME280;46042;49.444;6.862;2022-12-28T02:31:30;99136.72;;;2.67;100.00
60170;BME280;46042;49.444;6.862;2022-12-28T02:34:53;99129.72;;;2.69;100.00
60170;BME280;46042;49.444;6.862;2022-12-28T02:37:02;99127.72;;;2.79;100.00
60170;BME280;46042;49.444;6.862;2022-12-28T02:39:37;99122.59;;;2.78;100.00
60170;BME280;46042;49.444;6.862;2022-12-28T02:42:06;99109.41;;;2.84;100.00
60170;BME280;46042;49.444;6.862;2022-12-28T02:44:36;99108.50;;;2.85;100.00
60170;BME280;46042;49.444;6.862;2022-12-28T02:47:22;99107.59;;;2.86;100.00
60170;BME280;46042;49.444;6.862;2022-12-28T02:50:10;99117.88;;;2.92;100.00
60170;BME280;46042;49.444;6.862;2022-12-28T02:52:49;99113.59;;;2.90;100.00
60170;BME280;46042;49.444;6.862;2022-12-28T03:04:35;99097.50;;;3.07;100.00
60170;BME280;46042;49.444;6.862;2022-12-28T03:10:08;99088.88;;;3.05;100.00
60170;BME280;46042;49.444;6.862;2022-12-28T03:15:14;99079.22;;;3.10;100.00
60170;BME280;46042;49.444;6.862;2022-12-28T03:18:21;99069.44;;;3.17;100.00
60170;BME280;46042;49.444;6.862;2022-12-28T03:21:09;99058.06;;;3.21;100.00
60170;BME280;46042;49.444;6.862;2022-12-28T03:23:55;99057.13;;;3.23;100.00
60170;BME280;46042;49.444;6.862;2022-12-28T03:26:47;99064.91;;;3.25;100.00
60170;BME280;46042;49.444;6.862;2022-12-28T03:29:49;99066.63;;;3.24;100.00
60170;BME280;46042;49.444;6.862;2022-12-28T03:32:37;99070.78;;;3.32;100.00
60170;BME280;46042;49.444;6.862;2022-12-28T03:35:04;99061.16;;;3.34;100.00
60170;BME280;46042;49.444;6.862;2022-12-28T03:37:33;99067.06;;;3.40;100.00
60170;BME280;46042;49.444;6.862;2022-12-28T03:43:00;99059.00;;;3.48;100.00
60170;BME280;46042;49.444;6.862;2022-12-28T03:45:54;99050.31;;;3.48;100.00
60170;BME280;46042;49.444;6.862;2022-12-28T03:48:23;99045.91;;;3.50;100.00
60170;BME280;46042;49.444;6.862;2022-12-28T03:50:51;99038.97;;;3.50;100.00
60170;BME280;46042;49.444;6.862;2022-12-28T03:53:23;99039.41;;;3.65;100.00
60170;BME280;46042;49.444;6.862;2022-12-28T03:55:52;99034.13;;;3.66;100.00
60170;BME280;46042;49.444;6.862;2022-12-28T03:58:19;99040.72;;;3.78;100.00
60170;BME280;46042;49.444;6.862;2022-12-28T04:00:46;99043.34;;;3.78;100.00
60170;BME280;46042;49.444;6.862;2022-12-28T04:03:13;99044.16;;;3.79;100.00
60170;BME280;46042;49.444;6.862;2022-12-28T04:05:40;99049.34;;;3.80;100.00
60170;BME280;46042;49.444;6.862;2022-12-28T04:08:06;99050.94;;;3.84;100.00
60170;BME280;46042;49.444;6.862;2022-12-28T04:10:33;99040.47;;;3.86;100.00
60170;BME280;46042;49.444;6.862;2022-12-28T04:12:59;99039.47;;;3.90;100.00
60170;BME280;46042;49.444;6.862;2022-12-28T04:15:26;99039.47;;;3.90;100.00
60170;BME280;46042;49.444;6.862;2022-12-28T04:17:52;99033.22;;;3.96;100.00
60170;BME280;46042;49.444;6.862;2022-12-28T04:20:19;99036.56;;;3.99;100.00
60170;BME280;46042;49.444;6.862;2022-12-28T04:22:46;99032.06;;;4.05;100.00
60170;BME280;46042;49.444;6.862;2022-12-28T04:25:12;99027.84;;;4.01;100.00
60170;BME280;46042;49.444;6.862;2022-12-28T04:27:39;99030.25;;;4.07;100.00
60170;BME280;46042;49.444;6.862;2022-12-28T04:30:06;99018.97;;;4.06;100.00
60170;BME280;46042;49.444;6.862;2022-12-28T04:32:33;99008.53;;;4.06;100.00
60170;BME280;46042;49.444;6.862;2022-12-28T04:35:00;99011.25;;;4.03;100.00
60170;BME280;46042;49.444;6.862;2022-12-28T04:37:26;99000.72;;;4.06;100.00
60170;BME280;46042;49.444;6.862;2022-12-28T04:39:53;99014.66;;;4.05;100.00
60170;BME280;46042;49.444;6.862;2022-12-28T04:42:26;99011.03;;;4.09;100.00
60170;BME280;46042;49.444;6.862;2022-12-28T04:44:52;99008.38;;;4.11;100.00
60170;BME280;46042;49.444;6.862;2022-12-28T04:47:19;98992.72;;;4.12;100.00
60170;BME280;46042;49.444;6.862;2022-12-28T04:49:46;98999.63;;;4.13;100.00
60170;BME280;46042;49.444;6.862;2022-12-28T04:52:12;98999.63;;;4.13;100.00
60170;BME280;46042;49.444;6.862;2022-12-28T04:54:39;98996.00;;;4.18;100.00
60170;BME280;46042;49.444;6.862;2022-12-28T04:57:05;98983.78;;;4.18;100.00
60170;BME280;46042;49.444;6.862;2022-12-28T04:59:32;98986.25;;;4.23;100.00
60170;BME280;46042;49.444;6.862;2022-12-28T05:01:59;98981.00;;;4.24;100.00
60170;BME280;46042;49.444;6.862;2022-12-28T05:04:26;98974.72;;;4.30;100.00
60170;BME280;46042;49.444;6.862;2022-12-28T05:06:52;98988.66;;;4.29;100.00
60170;BME280;46042;49.444;6.862;2022-12-28T05:09:19;98983.50;;;4.27;100.00
60170;BME280;46042;49.444;6.862;2022-12-28T05:11:46;98992.22;;;4.26;100.00
60170;BME280;46042;49.444;6.862;2022-12-28T05:14:12;98997.44;;;4.26;100.00
60170;BME280;46042;49.444;6.862;2022-12-28T05:16:39;98999.09;;;4.29;100.00
60170;BME280;46042;49.444;6.862;2022-12-28T05:19:06;98997.22;;;4.33;100.00
60170;BME280;46042;49.444;6.862;2022-12-28T05:21:33;98995.22;;;4.41;100.00
60170;BME280;46042;49.444;6.862;2022-12-28T05:23:59;98994.22;;;4.44;100.00
60170;BME280;46042;49.444;6.862;2022-12-28T05:26:27;98991.53;;;4.47;100.00
60170;BME280;46042;49.444;6.862;2022-12-28T05:28:55;98995.06;;;4.46;100.00
60170;BME280;46042;49.444;6.862;2022-12-28T05:31:24;98989.88;;;4.44;100.00
60170;BME280;46042;49.444;6.862;2022-12-28T05:33:52;98984.44;;;4.50;100.00
60170;BME280;46042;49.444;6.862;2022-12-28T05:36:23;98989.50;;;4.55;100.00
60170;BME280;46042;49.444;6.862;2022-12-28T05:38:51;98993.88;;;4.54;100.00
60170;BME280;46042;49.444;6.862;2022-12-28T05:41:27;98992.91;;;4.57;100.00
60170;BME280;46042;49.444;6.862;2022-12-28T05:43:56;98999.63;;;4.64;100.00
60170;BME280;46042;49.444;6.862;2022-12-28T05:46:28;98991.69;;;4.67;100.00
60170;BME280;46042;49.444;6.862;2022-12-28T05:48:56;98988.28;;;4.65;100.00
60170;BME280;46042;49.444;6.862;2022-12-28T05:51:28;98987.00;;;4.76;100.00
60170;BME280;46042;49.444;6.862;2022-12-28T05:53:55;98976.56;;;4.76;100.00
60170;BME280;46042;49.444;6.862;2022-12-28T05:56:25;98980.72;;;4.81;100.00
60170;BME280;46042;49.444;6.862;2022-12-28T05:58:54;98982.38;;;4.84;100.00
60170;BME280;46042;49.444;6.862;2022-12-28T06:01:23;98980.03;;;4.76;100.00
60170;BME280;46042;49.444;6.862;2022-12-28T06:03:54;98978.19;;;4.80;100.00
60170;BME280;46042;49.444;6.862;2022-12-28T06:06:22;98966.88;;;4.79;100.00
60170;BME280;46042;49.444;6.862;2022-12-28T06:08:49;98970.41;;;4.78;100.00
60170;BME280;46042;49.444;6.862;2022-12-28T06:11:24;98963.06;;;4.88;100.00
60170;BME280;46042;49.444;6.862;2022-12-28T06:13:51;98957.84;;;4.88;100.00
60170;BME280;46042;49.444;6.862;2022-12-28T06:16:23;98952.63;;;4.88;100.00
60170;BME280;46042;49.444;6.862;2022-12-28T06:18:51;98943.94;;;4.88;100.00
60170;BME280;46042;49.444;6.862;2022-12-28T06:21:20;98939.16;;;4.99;100.00
60170;BME280;46042;49.444;6.862;2022-12-28T06:23:48;98948.06;;;4.93;100.00
60170;BME280;46042;49.444;6.862;2022-12-28T06:26:16;98948.06;;;4.93;100.00
60170;BME280;46042;49.444;6.862;2022-12-28T06:28:43;98941.94;;;4.94;100.00
60170;BME280;46042;49.444;6.862;2022-12-28T06:31:15;98934.13;;;4.94;100.00
60170;BME280;46042;49.444;6.862;2022-12-28T06:33:43;98936.69;;;4.96;100.00
60170;BME280;46042;49.444;6.862;2022-12-28T06:36:19;98942.78;;;4.96;100.00
60170;BME280;46042;49.444;6.862;2022-12-28T06:38:49;98940.16;;;4.96;100.00
60170;BME280;46042;49.444;6.862;2022-12-28T06:41:17;98936.69;;;4.96;100.00
60170;BME280;46042;49.444;6.862;2022-12-28T06:43:45;98938.44;;;4.95;100.00
60170;BME280;46042;49.444;6.862;2022-12-28T06:46:13;98938.63;;;4.91;100.00
60170;BME280;46042;49.444;6.862;2022-12-28T06:48:40;98934.25;;;4.91;100.00
60170;BME280;46042;49.444;6.862;2022-12-28T06:51:31;98944.84;;;4.87;100.00
60170;BME280;46042;49.444;6.862;2022-12-28T06:54:01;98942.25;;;4.87;100.00
60170;BME280;46042;49.444;6.862;2022-12-28T06:56:31;98948.50;;;4.82;100.00
60170;BME280;46042;49.444;6.862;2022-12-28T06:58:58;98941.56;;;4.81;100.00
60170;BME280;46042;49.444;6.862;2022-12-28T07:03:57;98942.59;;;4.77;100.00
60170;BME280;46042;49.444;6.862;2022-12-28T07:06:26;98934.81;;;4.76;100.00
60170;BME280;46042;49.444;6.862;2022-12-28T07:08:58;98928.94;;;4.70;100.00
60170;BME280;46042;49.444;6.862;2022-12-28T07:11:25;98922.00;;;4.69;100.00
60170;BME280;46042;49.444;6.862;2022-12-28T07:13:56;98925.41;;;4.72;100.00
60170;BME280;46042;49.444;6.862;2022-12-28T07:16:24;98923.81;;;4.67;100.00
60170;BME280;46042;49.444;6.862;2022-12-28T07:18:59;98923.16;;;4.62;100.00
60170;BME280;46042;49.444;6.862;2022-12-28T07:21:48;98918.81;;;4.61;100.00
60170;BME280;46042;49.444;6.862;2022-12-28T07:24:17;98917.97;;;4.61;100.00
60170;BME280;46042;49.444;6.862;2022-12-28T07:26:43;98913.72;;;4.58;100.00
60170;BME280;46042;49.444;6.862;2022-12-28T07:29:16;98912.91;;;4.56;100.00
60170;BME280;46042;49.444;6.862;2022-12-28T07:35:11;98908.78;;;4.50;100.00
60170;BME280;46042;49.444;6.862;2022-12-28T07:37:56;98908.66;;;4.53;100.00
60170;BME280;46042;49.444;6.862;2022-12-28T07:40:43;98917.31;;;4.55;100.00
60170;BME280;46042;49.444;6.862;2022-12-28T07:43:22;98914.56;;;4.59;100.00
60170;BME280;46042;49.444;6.862;2022-12-28T07:46:13;98914.75;;;4.54;100.00
60170;BME280;46042;49.444;6.862;2022-12-28T07:48:49;98912.81;;;4.59;100.00
60170;BME280;46042;49.444;6.862;2022-12-28T07:51:32;98923.31;;;4.58;100.00
60170;BME280;46042;49.444;6.862;2022-12-28T07:54:00;98909.41;;;4.57;100.00
60170;BME280;46042;49.444;6.862;2022-12-28T07:56:28;98915.25;;;4.64;100.00
60170;BME280;46042;49.444;6.862;2022-12-28T07:58:57;98910.28;;;4.58;100.00
60170;BME280;46042;49.444;6.862;2022-12-28T08:01:29;98912.75;;;4.61;100.00
60170;BME280;46042;49.444;6.862;2022-12-28T08:04:00;98911.06;;;4.60;100.00
60170;BME280;46042;49.444;6.862;2022-12-28T08:06:33;98910.91;;;4.64;100.00
60170;BME280;46042;49.444;6.862;2022-12-28T08:09:25;98901.28;;;4.65;100.00
60170;BME280;46042;49.444;6.862;2022-12-28T08:11:58;98903.00;;;4.66;100.00
60170;BME280;46042;49.444;6.862;2022-12-28T08:14:50;98896.88;;;4.67;100.00
60170;BME280;46042;49.444;6.862;2022-12-28T08:17:23;98897.66;;;4.69;100.00
60170;BME280;46042;49.444;6.862;2022-12-28T08:19:50;98901.09;;;4.71;100.00
60170;BME280;46042;49.444;6.862;2022-12-28T08:22:17;98900.22;;;4.70;100.00
60170;BME280;46042;49.444;6.862;2022-12-28T08:24:43;98899.31;;;4.72;100.00
60170;BME280;46042;49.444;6.862;2022-12-28T08:27:10;98903.63;;;4.73;100.00
60170;BME280;46042;49.444;6.862;2022-12-28T08:29:37;98907.09;;;4.73;100.00
60170;BME280;46042;49.444;6.862;2022-12-28T08:32:04;98904.41;;;4.75;100.00
60170;BME280;46042;49.444;6.862;2022-12-28T08:34:41;98901.75;;;4.76;100.00
60170;BME280;46042;49.444;6.862;2022-12-28T08:37:35;98900.72;;;4.80;100.00
60170;BME280;46042;49.444;6.862;2022-12-28T08:40:16;98897.28;;;4.80;100.00
60170;BME280;46042;49.444;6.862;2022-12-28T08:43:03;98888.53;;;4.81;100.00
60170;BME280;46042;49.444;6.862;2022-12-28T08:45:44;98890.22;;;4.82;100.00
60170;BME280;46042;49.444;6.862;2022-12-28T08:48:11;98887.41;;;4.87;100.00
60170;BME280;46042;49.444;6.862;2022-12-28T08:50:38;98883.00;;;4.89;100.00
60170;BME280;46042;49.444;6.862;2022-12-28T08:53:05;98876.94;;;4.88;100.00
60170;BME280;46042;49.444;6.862;2022-12-28T08:55:31;98875.09;;;4.90;100.00
60170;BME280;46042;49.444;6.862;2022-12-28T08:57:58;98881.13;;;4.92;100.00
60170;BME280;46042;49.444;6.862;2022-12-28T09:00:24;98873.28;;;4.92;100.00
60170;BME280;46042;49.444;6.862;2022-12-28T09:02:51;98882.03;;;4.91;100.00
60170;BME280;46042;49.444;6.862;2022-12-28T09:05:18;98882.75;;;4.95;100.00
60170;BME280;46042;49.444;6.862;2022-12-28T09:07:44;98879.41;;;4.91;100.00
60170;BME280;46042;49.444;6.862;2022-12-28T09:10:11;98873.22;;;4.94;100.00
60170;BME280;46042;49.444;6.862;2022-12-28T09:12:38;98888.81;;;4.95;100.00
60170;BME280;46042;49.444;6.862;2022-12-28T09:15:05;98887.94;;;4.96;100.00
60170;BME280;46042;49.444;6.862;2022-12-28T09:17:32;98882.81;;;4.93;100.00
60170;BME280;46042;49.444;6.862;2022-12-28T09:19:58;98889.69;;;4.96;100.00
60170;BME280;46042;49.444;6.862;2022-12-28T09:22:25;98888.00;;;4.95;100.00
60170;BME280;46042;49.444;6.862;2022-12-28T09:24:51;98883.56;;;4.97;100.00
60170;BME280;46042;49.444;6.862;2022-12-28T09:27:18;98891.22;;;5.02;100.00
60170;BME280;46042;49.444;6.862;2022-12-28T09:29:45;98883.31;;;5.03;100.00
60170;BME280;46042;49.444;6.862;2022-12-28T09:32:11;98886.16;;;4.97;100.00
60170;BME280;46042;49.444;6.862;2022-12-28T09:34:38;98888.81;;;4.95;100.00
60170;BME280;46042;49.444;6.862;2022-12-28T09:37:06;98886.22;;;4.95;100.00
60170;BME280;46042;49.444;6.862;2022-12-28T09:39:33;98886.59;;;5.08;100.00
60170;BME280;46042;49.444;6.862;2022-12-28T09:42:03;98886.34;;;5.15;100.00
60170;BME280;46042;49.444;6.862;2022-12-28T09:44:46;98888.91;;;5.16;100.00
60170;BME280;46042;49.444;6.862;2022-12-28T09:47:25;98882.53;;;5.23;100.00
60170;BME280;46042;49.444;6.862;2022-12-28T09:50:02;98888.41;;;5.29;100.00
60170;BME280;46042;49.444;6.862;2022-12-28T09:52:34;98876.19;;;5.29;100.00
60170;BME280;46042;49.444;6.862;2022-12-28T09:55:20;98881.44;;;5.29;100.00
60170;BME280;46042;49.444;6.862;2022-12-28T09:57:54;98879.56;;;5.33;100.00
60170;BME280;46042;49.444;6.862;2022-12-28T10:00:23;98869.16;;;5.31;100.00
60170;BME280;46042;49.444;6.862;2022-12-28T10:02:57;98872.53;;;5.33;100.00
60170;BME280;46042;49.444;6.862;2022-12-28T10:05:26;98870.31;;;5.24;100.00
60170;BME280;46042;49.444;6.862;2022-12-28T10:07:54;98859.63;;;5.30;100.00
60170;BME280;46042;49.444;6.862;2022-12-28T10:10:23;98856.63;;;5.39;100.00
60170;BME280;46042;49.444;6.862;2022-12-28T10:13:32;98855.81;;;5.37;100.00
60170;BME280;46042;49.444;6.862;2022-12-28T10:16:38;98860.75;;;5.45;100.00
60170;BME280;46042;49.444;6.862;2022-12-28T10:19:22;98846.09;;;5.41;100.00
60170;BME280;46042;49.444;6.862;2022-12-28T10:22:11;98846.97;;;5.41;100.00
60170;BME280;46042;49.444;6.862;2022-12-28T10:24:39;98839.97;;;5.42;100.00
60170;BME280;46042;49.444;6.862;2022-12-28T10:27:12;98838.91;;;5.46;100.00
60170;BME280;46042;49.444;6.862;2022-12-28T10:29:42;98830.16;;;5.47;100.00
60170;BME280;46042;49.444;6.862;2022-12-28T10:32:10;98825.81;;;5.48;100.00
60170;BME280;46042;49.444;6.862;2022-12-28T10:34:58;98822.28;;;5.49;100.00
60170;BME280;46042;49.444;6.862;2022-12-28T10:37:28;98815.94;;;5.54;100.00
60170;BME280;46042;49.444;6.862;2022-12-28T10:39:58;98816.88;;;5.53;100.00
60170;BME280;46042;49.444;6.862;2022-12-28T10:42:49;98817.44;;;5.60;100.00
60170;BME280;46042;49.444;6.862;2022-12-28T10:45:20;98813.00;;;5.62;100.00
60170;BME280;46042;49.444;6.862;2022-12-28T10:47:50;98800.59;;;5.67;100.00
60170;BME280;46042;49.444;6.862;2022-12-28T10:53:03;98798.69;;;5.71;100.00
60170;BME280;46042;49.444;6.862;2022-12-28T10:55:32;98795.16;;;5.72;100.00
60170;BME280;46042;49.444;6.862;2022-12-28T10:58:18;98791.34;;;5.79;100.00
60170;BME280;46042;49.444;6.862;2022-12-28T11:01:16;98787.03;;;5.78;100.00
60170;BME280;46042;49.444;6.862;2022-12-28T11:06:34;98775.66;;;5.79;100.00
60170;BME280;46042;49.444;6.862;2022-12-28T11:09:25;98767.81;;;5.79;100.00
60170;BME280;46042;49.444;6.862;2022-12-28T11:12:36;98769.47;;;5.82;100.00
60170;BME280;46042;49.444;6.862;2022-12-28T11:15:30;98766.84;;;5.82;100.00
60170;BME280;46042;49.444;6.862;2022-12-28T11:18:15;98762.34;;;5.86;100.00
60170;BME280;46042;49.444;6.862;2022-12-28T11:20:51;98756.81;;;5.92;100.00
60170;BME280;46042;49.444;6.862;2022-12-28T11:23:20;98754.97;;;5.94;100.00
60170;BME280;46042;49.444;6.862;2022-12-28T11:25:47;98735.72;;;5.96;100.00
60170;BME280;46042;49.444;6.862;2022-12-28T11:28:19;98740.84;;;5.98;100.00
60170;BME280;46042;49.444;6.862;2022-12-28T11:30:48;98738.38;;;5.95;100.00
60170;BME280;46042;49.444;6.862;2022-12-28T11:33:33;98730.34;;;6.00;100.00
60170;BME280;46042;49.444;6.862;2022-12-28T11:36:01;98725.25;;;5.96;100.00
60170;BME280;46042;49.444;6.862;2022-12-28T11:38:40;98725.06;;;6.01;100.00
60170;BME280;46042;49.444;6.862;2022-12-28T11:41:39;98717.00;;;6.06;100.00
60170;BME280;46042;49.444;6.862;2022-12-28T11:44:01;98702.16;;;6.06;100.00
60170;BME280;46042;49.444;6.862;2022-12-28T11:49:01;98700.19;;;6.11;100.00
60170;BME280;46042;49.444;6.862;2022-12-28T11:51:31;98693.25;;;6.10;100.00
60170;BME280;46042;49.444;6.862;2022-12-28T11:54:37;98693.88;;;6.16;100.00
60170;BME280;46042;49.444;6.862;2022-12-28T11:57:04;98689.34;;;6.19;100.00
60170;BME280;46042;49.444;6.862;2022-12-28T12:02:46;98686.22;;;6.30;100.00
60170;BME280;46042;49.444;6.862;2022-12-28T12:08:39;98675.41;;;6.38;100.00
60170;BME280;46042;49.444;6.862;2022-12-28T12:13:53;98671.56;;;6.45;100.00
60170;BME280;46042;49.444;6.862;2022-12-28T12:18:52;98662.44;;;6.54;100.00
60170;BME280;46042;49.444;6.862;2022-12-28T12:21:31;98665.66;;;6.59;100.00
60170;BME280;46042;49.444;6.862;2022-12-28T12:27:38;98646.72;;;6.72;100.00
60170;BME280;46042;49.444;6.862;2022-12-28T12:29:43;98636.88;;;6.77;100.00
60170;BME280;46042;49.444;6.862;2022-12-28T12:32:21;98640.84;;;6.84;100.00
60170;BME280;46042;49.444;6.862;2022-12-28T12:34:52;98635.56;;;6.86;100.00
60170;BME280;46042;49.444;6.862;2022-12-28T12:37:35;98631.19;;;6.86;100.00
60170;BME280;46042;49.444;6.862;2022-12-28T12:42:56;98628.06;;;6.95;100.00
60170;BME280;46042;49.444;6.862;2022-12-28T12:45:31;98623.81;;;6.93;100.00
60170;BME280;46042;49.444;6.862;2022-12-28T12:54:04;98615.47;;;6.86;100.00
60170;BME280;46042;49.444;6.862;2022-12-28T12:57:02;98610.22;;;6.86;100.00
60170;BME280;46042;49.444;6.862;2022-12-28T13:04:40;98596.44;;;6.82;100.00
60170;BME280;46042;49.444;6.862;2022-12-28T13:07:17;98589.88;;;6.91;100.00
60170;BME280;46042;49.444;6.862;2022-12-28T13:09:47;98584.72;;;6.90;100.00
60170;BME280;46042;49.444;6.862;2022-12-28T13:12:15;98578.53;;;6.91;100.00
60170;BME280;46042;49.444;6.862;2022-12-28T13:14:48;98571.38;;;6.94;100.00
60170;BME280;46042;49.444;6.862;2022-12-28T13:17:19;98568.06;;;6.91;100.00
60170;BME280;46042;49.444;6.862;2022-12-28T13:19:46;98556.66;;;6.92;100.00
60170;BME280;46042;49.444;6.862;2022-12-28T13:22:27;98555.75;;;6.93;100.00
60170;BME280;46042;49.444;6.862;2022-12-28T13:24:54;98552.47;;;6.89;100.00
60170;BME280;46042;49.444;6.862;2022-12-28T13:27:35;98558.78;;;6.85;100.00
60170;BME280;46042;49.444;6.862;2022-12-28T13:30:37;98555.25;;;6.86;100.00
60170;BME280;46042;49.444;6.862;2022-12-28T13:33:03;98543.16;;;6.83;100.00
60170;BME280;46042;49.444;6.862;2022-12-28T13:35:32;98536.06;;;6.86;100.00
60170;BME280;46042;49.444;6.862;2022-12-28T13:38:12;98531.06;;;6.81;100.00
60170;BME280;46042;49.444;6.862;2022-12-28T13:40:48;98518.88;;;6.80;100.00
60170;BME280;46042;49.444;6.862;2022-12-28T13:46:12;98520.69;;;6.79;100.00
60170;BME280;46042;49.444;6.862;2022-12-28T13:48:46;98523.38;;;6.78;100.00
60170;BME280;46042;49.444;6.862;2022-12-28T13:51:17;98512.88;;;6.78;100.00
60170;BME280;46042;49.444;6.862;2022-12-28T13:53:48;98522.53;;;6.77;100.00
60170;BME280;46042;49.444;6.862;2022-12-28T13:56:33;98522.38;;;6.80;100.00
60170;BME280;46042;49.444;6.862;2022-12-28T13:59:20;98514.75;;;6.76;100.00
60170;BME280;46042;49.444;6.862;2022-12-28T14:01:48;98518.47;;;6.72;100.00
60170;BME280;46042;49.444;6.862;2022-12-28T14:04:23;98512.28;;;6.73;100.00
60170;BME280;46042;49.444;6.862;2022-12-28T14:07:12;98505.28;;;6.73;100.00
60170;BME280;46042;49.444;6.862;2022-12-28T14:09:40;98506.13;;;6.74;100.00
60170;BME280;46042;49.444;6.862;2022-12-28T14:12:07;98496.41;;;6.76;100.00
60170;BME280;46042;49.444;6.862;2022-12-28T14:14:34;98492.88;;;6.77;100.00
60170;BME280;46042;49.444;6.862;2022-12-28T14:17:01;98495.72;;;6.72;100.00
60170;BME280;46042;49.444;6.862;2022-12-28T14:19:28;98498.44;;;6.71;100.00
60170;BME280;46042;49.444;6.862;2022-12-28T14:21:55;98495.97;;;6.67;100.00
60170;BME280;46042;49.444;6.862;2022-12-28T14:24:22;98492.44;;;6.68;100.00
60170;BME280;46042;49.444;6.862;2022-12-28T14:27:01;98496.81;;;6.68;100.00
60170;BME280;46042;49.444;6.862;2022-12-28T14:29:42;98495.06;;;6.68;100.00
60170;BME280;46042;49.444;6.862;2022-12-28T14:32:20;98490.88;;;6.64;100.00
60170;BME280;46042;49.444;6.862;2022-12-28T14:34:48;98483.38;;;6.58;100.00
60170;BME280;46042;49.444;6.862;2022-12-28T14:37:25;98485.28;;;6.54;100.00
60170;BME280;46042;49.444;6.862;2022-12-28T14:39:57;98482.84;;;6.51;100.00
60170;BME280;46042;49.444;6.862;2022-12-28T14:42:26;98478.59;;;6.49;100.00
60170;BME280;46042;49.444;6.862;2022-12-28T14:45:20;98472.78;;;6.44;100.00
60170;BME280;46042;49.444;6.862;2022-12-28T14:47:56;98471.00;;;6.44;100.00
60170;BME280;46042;49.444;6.862;2022-12-28T14:50:30;98462.53;;;6.39;100.00
60170;BME280;46042;49.444;6.862;2022-12-28T14:53:06;98458.06;;;6.41;100.00